Novato, CA

9:36 PM PDT on October 25, 2014 (GMT -0700)
Napa County | Change Station
CLOSE
Current Station
Airport
Location: Napa County,
Elevation: 33 ft
Nearby Weather Stations

Elev 33 ft 38.21 °N, 122.28 °W | Updated 42 minutes ago

Partly Cloudy
Partly Cloudy
59 °F
Feels Like 59 °F
N
7
Wind Variable Wind from WSW

Today
High -- | Low -- °F
--% Chance of Precip.
Yesterday
High -- | Low -- °F
Precip. -- in
7:28 AM 6:18 PM
Waxing Crescent, 6% visible
Pressure 30.07 in
Visibility 10.0 miles
Clouds Few 5000 ft
Mostly Cloudy 10000 ft
Dew Point 55 °F
Humidity 87%
Rainfall 0.29 in
Snow Depth Not available.
UV 0 out of 12
Pollen .10 out of 12
PM2.5 Good
Flu Activity Sporadic
METAR KAPC 260354Z AUTO 25006KT 10SM FEW050 BKN100 15/13 A3010 RMK AO2 SLP182 T01500128

More Conditions Fewer Conditions

Pressure 30.07 in
Visibility 10.0 miles
Clouds Few 5000 ft
Mostly Cloudy 10000 ft
Dew Point 55 °F
Humidity 87%
Rainfall 0.29 in
Snow Depth Not available.
UV 0 out of 12
Pollen .10 out of 12
PM2.5 Good
Flu Activity Sporadic
METAR KAPC 260354Z AUTO 25006KT 10SM FEW050 BKN100 15/13 A3010 RMK AO2 SLP182 T01500128

More Conditions Fewer Conditions

10-Day Weather Forecast

Almanac

Astronomy

Oct. 25, 2014 Rise Set
Actual Time 7:28 AM PDT 6:18 PM PDT
Civil Twilight 7:01 AM PDT 6:45 PM PDT
Nautical Twilight 6:31 AM PDT 7:16 PM PDT
Astronomical Twilight 6:00 AM PDT 7:47 PM PDT
Moon 9:12 AM PDT (10/25) 7:47 PM PDT (10/25)
Length of Visible Light 11h 43m
Length of Day
10h 50m
Tomorrow will be 2m 16s shorter.
Waxing Crescent, 6% of the Moon is Illuminated
Oct 26
Waxing Crescent
Oct 30
First Quarter
Nov 6
Full
Nov 14
Last Quarter
Nov 22
New

Yesterday's Extremes

State Highs State Lows

Community

WunderPhotos

Upload Photos

1,765,110 photos uploaded!

Nearby

Air Quality

  Air Quality AQ Index Pollutant
Yesterday Good
OZONE
Yesterday Good
PM2.5
Current Good
PM2.5
Saturday Good
OZONE
Sunday Moderate
PM2.5
Monday Moderate
PM2.5
Tuesday Moderate
PM2.5
Wednesday Moderate
PM2.5

Snow Depth

Station Depth Elevation
Ward Creek #3 1 in 6750 ft
Echo Peak 0 in 7800 ft
Squaw Valley 1 in 8200 ft
CSS Lab 2 in 6900 ft
Rubicon #2 2 in 7500 ft

Earthquake Activity

City Distance Mag. Time & Date
Antioch, California 40 miles 2.7 6:42 AM PDT
2014-10-25
Deer Park, California 27 miles 2.8 6:40 AM PDT
2014-10-25
Minimum magnitude displayed is 2.5.

Coastal Water Temperatures

Place Temperature
San Francisco, CA 63.0 °F
Richmond, CA 64.0 °F
Port Chicago, CA 66.0 °F

Nearby Weather Stations